M I D A S
Marine Information and Data Acquisition System
Tripno 1521 of the Zeeleeuw from 2008-07-17 06:24:38 to 2008-07-17 15:20:31
Back to CruiseResearch ActivitiesStationsMapUnderway DataData graphs

EquipmentUnitsComment
TimeDGPSUTC
LatitudeDGPSDM.mWGS84
LongitudeDGPSDM.mWGS84
HeadingGyrodeg 
SOGDGPSknotsSpeed over ground
COGDGPSdegCourse over ground
DepthEcho soundermeters200 kHz
Missing or incorrect values are displayed as -999
Navigation data collected by the RV Zeeleeuw from 2008-07-17 06:27:00 to 2008-07-17 15:22:41
                                                                                    Next 1000 lines
Time Latitude Longitude Heading SOG COG Depth
2008-07-17 06:27:09 51°13.623 2°56.045 111.8 0.9 296 -999
2008-07-17 06:27:14 51°13.624 2°56.043 111.7 1.2 297 -999
2008-07-17 06:27:19 51°13.625 2°56.04 111.7 1.5 296 -999
2008-07-17 06:27:25 51°13.626 2°56.036 111.6 1.7 296 -999
2008-07-17 06:27:29 51°13.627 2°56.033 111.6 1.9 296 -999
2008-07-17 06:27:34 51°13.628 2°56.029 111.2 2.1 296 -999
2008-07-17 06:27:39 51°13.629 2°56.024 110.9 2.3 296 -999
2008-07-17 06:27:44 51°13.631 2°56.019 110.6 2.5 295 -999
2008-07-17 06:27:49 51°13.632 2°56.014 110.1 2.6 296 -999
2008-07-17 06:27:54 51°13.634 2°56.009 109.5 2.8 295 -999
2008-07-17 06:27:59 51°13.635 2°56.003 108.7 3 293 -999
2008-07-17 06:28:04 51°13.637 2°55.996 107.8 3.2 292 -999
2008-07-17 06:28:09 51°13.639 2°55.989 106.8 3.3 291 -999
2008-07-17 06:28:15 51°13.641 2°55.981 105.8 3.2 289 -999
2008-07-17 06:28:19 51°13.641 2°55.976 104.6 3 286 -999
2008-07-17 06:28:24 51°13.642 2°55.97 102.9 2.7 287 -999
2008-07-17 06:28:29 51°13.643 2°55.965 101.5 2.3 286 -999
2008-07-17 06:28:35 51°13.644 2°55.96 100.6 1.7 286 -999
2008-07-17 06:28:40 51°13.644 2°55.958 100.4 1.2 285 -999
2008-07-17 06:28:44 51°13.645 2°55.957 100.8 0.6 286 -999
2008-07-17 06:28:49 51°13.645 2°55.956 102.8 0.2 302 -999
2008-07-17 06:28:54 51°13.645 2°55.956 105.9 0.2 280 -999
2008-07-17 06:28:59 51°13.645 2°55.955 108.6 0.3 292 -999
2008-07-17 06:29:04 51°13.645 2°55.954 110.2 0.6 293 -999
2008-07-17 06:29:09 51°13.646 2°55.952 110.9 0.9 292 -999
2008-07-17 06:29:14 51°13.646 2°55.95 111.6 1.2 290 -999
2008-07-17 06:29:20 51°13.647 2°55.946 112.1 1.5 292 -999
2008-07-17 06:29:25 51°13.648 2°55.943 112.6 1.8 293 -999
2008-07-17 06:29:29 51°13.649 2°55.939 113.1 2 293 -999
2008-07-17 06:29:34 51°13.65 2°55.935 113.3 2.3 294 -999
2008-07-17 06:29:39 51°13.652 2°55.93 113.7 2.4 294 -999
2008-07-17 06:29:45 51°13.654 2°55.924 114 2.6 295 -999
2008-07-17 06:29:49 51°13.655 2°55.919 114.2 2.8 295 -999
2008-07-17 06:29:54 51°13.657 2°55.914 114.5 2.9 296 -999
2008-07-17 06:29:59 51°13.659 2°55.908 114.6 3.1 295 -999
2008-07-17 06:30:05 51°13.661 2°55.9 114.7 3.2 296 -999
2008-07-17 06:30:09 51°13.662 2°55.895 114.8 3.3 296 -999
2008-07-17 06:30:14 51°13.664 2°55.888 114.8 3.3 296 -999
2008-07-17 06:30:19 51°13.666 2°55.881 114.8 3.4 296 -999
2008-07-17 06:30:24 51°13.668 2°55.874 114.6 3.5 296 -999
2008-07-17 06:30:29 51°13.671 2°55.867 114.5 3.6 296 -999
2008-07-17 06:30:35 51°13.673 2°55.859 114.5 3.6 295 -999
2008-07-17 06:30:39 51°13.675 2°55.853 114.1 3.6 296 -999
2008-07-17 06:30:44 51°13.677 2°55.845 113.7 3.7 295 -999
2008-07-17 06:30:49 51°13.679 2°55.838 113.2 3.8 295 -999
2008-07-17 06:30:55 51°13.682 2°55.829 112.7 3.8 294 -999
2008-07-17 06:31:00 51°13.684 2°55.821 112.3 3.6 294 -999
2008-07-17 06:31:04 51°13.686 2°55.815 111.7 3.6 294 -999
2008-07-17 06:31:09 51°13.688 2°55.808 111 3.6 293 -999
2008-07-17 06:31:14 51°13.689 2°55.801 110.2 3.6 292 -999
2008-07-17 06:31:20 51°13.692 2°55.792 109 3.6 291 -999
2008-07-17 06:31:24 51°13.693 2°55.786 107.8 3.5 289 -999
2008-07-17 06:31:29 51°13.694 2°55.779 106.4 3.3 288 -999
2008-07-17 06:31:34 51°13.695 2°55.772 104.9 3.1 288 -999
2008-07-17 06:31:40 51°13.697 2°55.765 103.7 3 287 -999
2008-07-17 06:31:45 51°13.698 2°55.759 102.6 2.8 288 -999
2008-07-17 06:31:49 51°13.699 2°55.754 101.7 2.6 287 -999
2008-07-17 06:31:54 51°13.7 2°55.749 100.8 2.4 286 9.9
2008-07-17 06:31:59 51°13.701 2°55.745 99.6 2 285 10
2008-07-17 06:32:04 51°13.701 2°55.741 97.9 1.6 286 9.7
2008-07-17 06:32:09 51°13.702 2°55.738 95.9 1.2 289 10.1
2008-07-17 06:32:14 51°13.703 2°55.737 93.3 0.8 297 10.1
2008-07-17 06:32:19 51°13.703 2°55.736 90 0.5 327 10
2008-07-17 06:32:24 51°13.703 2°55.736 86.1 0.5 16 10.1
2008-07-17 06:32:29 51°13.704 2°55.737 81.3 0.7 38 10.1
2008-07-17 06:32:34 51°13.705 2°55.738 76.2 1 45 10.1
2008-07-17 06:32:39 51°13.706 2°55.74 70.5 1.3 44 10.1
2008-07-17 06:32:44 51°13.708 2°55.743 64.5 1.6 41 9.8
2008-07-17 06:32:49 51°13.71 2°55.745 58.4 1.8 37 9.9
2008-07-17 06:32:54 51°13.712 2°55.748 52 2 32 9.9
2008-07-17 06:32:59 51°13.715 2°55.75 45.5 2.3 26 9.9
2008-07-17 06:33:04 51°13.718 2°55.752 38.7 2.3 21 9.9
2008-07-17 06:33:09 51°13.721 2°55.753 31.8 2.1 14 10
2008-07-17 06:33:14 51°13.723 2°55.753 25.5 1.7 11 10
2008-07-17 06:33:19 51°13.725 2°55.753 21.4 1.3 3 10
2008-07-17 06:33:24 51°13.726 2°55.753 17.3 0.9 357 10
2008-07-17 06:33:29 51°13.727 2°55.753 12.7 0.5 338 10.2
2008-07-17 06:33:34 51°13.727 2°55.752 8.2 0.3 304 10
2008-07-17 06:33:39 51°13.727 2°55.752 4.9 0.3 232 10
2008-07-17 06:33:44 51°13.727 2°55.751 2.3 0.5 204 10
2008-07-17 06:33:49 51°13.726 2°55.751 359.9 0.8 193 9.9
2008-07-17 06:33:54 51°13.724 2°55.751 357.8 1 187 10.2
2008-07-17 06:33:59 51°13.723 2°55.751 355.4 0.9 188 -999
2008-07-17 06:34:05 51°13.722 2°55.75 352.6 0.8 186 -999
2008-07-17 06:34:09 51°13.721 2°55.75 351.6 0.7 189 -999
2008-07-17 06:34:14 51°13.72 2°55.75 350.8 0.6 190 -999
2008-07-17 06:34:19 51°13.72 2°55.75 350.2 0.5 200 -999
2008-07-17 06:34:24 51°13.719 2°55.749 349.6 0.3 239 -999
2008-07-17 06:34:29 51°13.72 2°55.749 348.4 0.4 315 -999
2008-07-17 06:34:34 51°13.721 2°55.748 346 0.8 322 -999
2008-07-17 06:34:39 51°13.722 2°55.746 343.2 1.1 327 4.8
2008-07-17 06:34:44 51°13.724 2°55.745 340.6 1.5 327 10
2008-07-17 06:34:49 51°13.726 2°55.743 337.7 1.9 328 4.8
2008-07-17 06:34:54 51°13.728 2°55.74 334.8 2.3 327 -999
2008-07-17 06:34:59 51°13.731 2°55.737 332.5 2.8 326 4.7
2008-07-17 06:35:04 51°13.735 2°55.734 330.5 3.2 325 5.1
2008-07-17 06:35:09 51°13.739 2°55.729 329 3.7 326 -999
2008-07-17 06:35:14 51°13.744 2°55.724 328.7 4.3 325 9.9
2008-07-17 06:35:20 51°13.751 2°55.716 328.4 4.9 325 -999
2008-07-17 06:35:24 51°13.756 2°55.711 328 5.5 325 9.9
2008-07-17 06:35:29 51°13.762 2°55.703 327.8 6 326 10
2008-07-17 06:35:34 51°13.77 2°55.695 328 6.4 326 9.9
2008-07-17 06:35:39 51°13.778 2°55.687 328.6 6.8 326 9.7
2008-07-17 06:35:44 51°13.786 2°55.678 328.7 7.2 327 9.2
2008-07-17 06:35:49 51°13.795 2°55.67 329.1 7.5 329 9.6
2008-07-17 06:35:54 51°13.804 2°55.661 330 7.7 329 -999
2008-07-17 06:35:59 51°13.813 2°55.652 330.9 7.9 330 10.1
2008-07-17 06:36:04 51°13.823 2°55.643 331.8 8.1 331 9.9
2008-07-17 06:36:09 51°13.833 2°55.634 332.5 8.2 331 10
2008-07-17 06:36:14 51°13.843 2°55.625 332.8 8.4 333 10.1
2008-07-17 06:36:19 51°13.853 2°55.617 334 8.5 333 10.1
2008-07-17 06:36:25 51°13.866 2°55.606 334.8 8.6 333 10.1
2008-07-17 06:36:29 51°13.875 2°55.599 334.6 8.7 333 10.1
2008-07-17 06:36:34 51°13.886 2°55.591 334.6 8.8 334 10
2008-07-17 06:36:39 51°13.896 2°55.582 334.6 8.8 333 10
2008-07-17 06:36:45 51°13.91 2°55.571 334.4 8.9 334 10.2
2008-07-17 06:36:49 51°13.918 2°55.564 334.7 8.9 333 10.1
2008-07-17 06:36:54 51°13.93 2°55.555 334.8 8.9 332 10.2
2008-07-17 06:36:59 51°13.941 2°55.546 334.5 9 333 10.3
2008-07-17 06:37:04 51°13.952 2°55.537 334.3 9 333 10.2
2008-07-17 06:37:09 51°13.963 2°55.528 334.6 9 334 10.2
2008-07-17 06:37:14 51°13.974 2°55.52 335.2 8.9 333 10.3
2008-07-17 06:37:19 51°13.985 2°55.511 335.8 8.9 335 10.2
2008-07-17 06:37:24 51°13.997 2°55.503 336.6 8.9 334 10.2
2008-07-17 06:37:29 51°14.007 2°55.494 336.7 8.9 334 10.1
2008-07-17 06:37:34 51°14.019 2°55.486 336.6 8.9 335 10.2
2008-07-17 06:37:39 51°14.03 2°55.477 336.7 8.9 333 10.2
2008-07-17 06:37:44 51°14.041 2°55.468 336.1 8.9 334 10.1
2008-07-17 06:37:49 51°14.052 2°55.46 336.2 8.9 334 10
2008-07-17 06:37:54 51°14.063 2°55.451 336.6 9 334 10
2008-07-17 06:37:58 51°14.072 2°55.444 336.4 9 332 10.1
2008-07-17 06:38:03 51°14.083 2°55.435 334.9 9 333 -999
2008-07-17 06:38:08 51°14.094 2°55.426 334.8 9 334 10
2008-07-17 06:38:13 51°14.106 2°55.417 336 9 334 10.1
2008-07-17 06:38:18 51°14.117 2°55.408 336.2 9 334 10.1
2008-07-17 06:38:23 51°14.129 2°55.399 336.2 9 334 10.3
2008-07-17 06:38:28 51°14.14 2°55.391 335.9 9 333 10.1
2008-07-17 06:38:33 51°14.151 2°55.381 335.5 8.9 332 10.1
2008-07-17 06:38:37 51°14.159 2°55.374 334.7 8.9 331 10.2
2008-07-17 06:38:42 51°14.17 2°55.364 333.2 8.9 329 10.3
2008-07-17 06:38:46 51°14.178 2°55.356 331.7 8.9 329 10
2008-07-17 06:38:51 51°14.189 2°55.345 330 8.9 326 10.3
2008-07-17 06:38:56 51°14.199 2°55.334 328.6 8.9 326 10.2
2008-07-17 06:39:01 51°14.209 2°55.322 327.3 8.9 323 10.2
2008-07-17 06:39:06 51°14.218 2°55.31 324.9 8.9 321 9.8
2008-07-17 06:39:11 51°14.228 2°55.297 322.9 8.9 320 10
2008-07-17 06:39:16 51°14.237 2°55.284 321.9 8.9 319 10
2008-07-17 06:39:21 51°14.246 2°55.271 320.8 8.9 318 9.8
2008-07-17 06:39:26 51°14.255 2°55.258 319.6 8.9 317 10.2
2008-07-17 06:39:31 51°14.264 2°55.244 318.2 8.9 315 9.5
2008-07-17 06:39:36 51°14.273 2°55.23 316.8 8.9 314 9.4
2008-07-17 06:39:41 51°14.281 2°55.215 315.2 8.9 313 9.3
2008-07-17 06:39:45 51°14.288 2°55.204 314.6 8.9 313 9.5
2008-07-17 06:39:51 51°14.298 2°55.186 314.4 8.9 312 9.6
2008-07-17 06:39:56 51°14.306 2°55.171 313.1 8.9 310 9.4
2008-07-17 06:40:01 51°14.313 2°55.156 311.9 8.9 310 9.6
2008-07-17 06:40:05 51°14.32 2°55.144 311.7 8.9 310 9.9
2008-07-17 06:40:11 51°14.33 2°55.126 312.2 8.9 311 10
2008-07-17 06:40:16 51°14.337 2°55.111 312.3 8.9 310 10
2008-07-17 06:40:21 51°14.345 2°55.096 311.1 8.8 308 10
2008-07-17 06:40:26 51°14.352 2°55.08 308.9 8.9 305 10
2008-07-17 06:40:31 51°14.359 2°55.063 306.9 9.2 304 10.3
2008-07-17 06:40:36 51°14.366 2°55.045 305.1 9.5 300 10.6
2008-07-17 06:40:41 51°14.372 2°55.026 302 9.8 297 10.3
2008-07-17 06:40:45 51°14.377 2°55.009 299.2 10 295 9.6
2008-07-17 06:40:51 51°14.383 2°54.984 296.5 10.3 291 9.6
2008-07-17 06:40:56 51°14.388 2°54.962 293.7 10.5 289 9.4
2008-07-17 06:41:01 51°14.392 2°54.939 290.9 10.9 285 9.5
2008-07-17 06:41:06 51°14.396 2°54.915 288.4 11 284 9.5
2008-07-17 06:41:11 51°14.399 2°54.891 286.4 11.2 281 9.3
2008-07-17 06:41:16 51°14.401 2°54.866 283.2 11.4 278 9.5
2008-07-17 06:41:21 51°14.403 2°54.84 281.4 11.5 277 9.7
2008-07-17 06:41:26 51°14.404 2°54.815 279 11.6 274 9.6
2008-07-17 06:41:31 51°14.405 2°54.789 276.9 11.8 273 9.4
2008-07-17 06:41:36 51°14.405 2°54.762 275.5 11.9 270 9.5
2008-07-17 06:41:41 51°14.404 2°54.736 273.8 11.8 270 9.5
2008-07-17 06:41:46 51°14.403 2°54.71 272.6 11.8 266 9.5
2008-07-17 06:41:51 51°14.401 2°54.684 268.5 12 262 9.7
2008-07-17 06:41:56 51°14.398 2°54.658 264.1 12.1 259 9.9
2008-07-17 06:42:01 51°14.394 2°54.632 261 12.3 257 9.6
2008-07-17 06:42:05 51°14.391 2°54.611 259 12.3 255 10.2
2008-07-17 06:42:11 51°14.385 2°54.579 256.9 12.4 253 9.6
2008-07-17 06:42:16 51°14.379 2°54.553 253.8 12.5 250 9.6
2008-07-17 06:42:21 51°14.372 2°54.527 251.5 12.5 248 8.6
2008-07-17 06:42:26 51°14.366 2°54.501 250.3 12.5 249 8.4
2008-07-17 06:42:31 51°14.359 2°54.476 250.1 12.5 247 8.3
2008-07-17 06:42:36 51°14.352 2°54.45 250.1 12.5 247 8.2
2008-07-17 06:42:41 51°14.345 2°54.426 248.8 12.5 243 8.3
2008-07-17 06:42:45 51°14.338 2°54.406 245.8 12.6 241 8.2
2008-07-17 06:42:51 51°14.328 2°54.377 243.5 12.7 241 8.2
2008-07-17 06:42:56 51°14.319 2°54.352 242.1 12.8 241 8.1
2008-07-17 06:43:01 51°14.31 2°54.327 242.4 12.8 242 8.1
2008-07-17 06:43:06 51°14.303 2°54.302 243.8 12.8 244 8.2
2008-07-17 06:43:11 51°14.294 2°54.276 244.6 12.9 243 8.2
2008-07-17 06:43:16 51°14.287 2°54.251 245.4 12.9 245 8.2
2008-07-17 06:43:21 51°14.279 2°54.225 246 12.8 243 8
2008-07-17 06:43:25 51°14.272 2°54.205 245.7 12.9 245 8.1
2008-07-17 06:43:31 51°14.262 2°54.174 245.4 12.9 242 8.1
2008-07-17 06:43:36 51°14.255 2°54.149 245.4 12.9 244 7.9
2008-07-17 06:43:41 51°14.247 2°54.123 245.4 12.9 243 7.7
2008-07-17 06:43:46 51°14.239 2°54.098 245 13 243 8
2008-07-17 06:43:51 51°14.231 2°54.072 245.3 13 243 7.7
2008-07-17 06:43:56 51°14.223 2°54.047 245.4 12.9 244 8
2008-07-17 06:44:01 51°14.215 2°54.021 245.4 13 244 7.8
2008-07-17 06:44:06 51°14.207 2°53.995 245.5 13 244 7.9
2008-07-17 06:44:11 51°14.199 2°53.97 245.6 13 244 7.8
2008-07-17 06:44:16 51°14.19 2°53.944 245.4 13.1 243 8
2008-07-17 06:44:21 51°14.183 2°53.918 245.5 13.1 243 8
2008-07-17 06:44:25 51°14.176 2°53.898 245.2 13.1 243 8.1
2008-07-17 06:44:31 51°14.166 2°53.867 245.1 13.1 243 7.9
2008-07-17 06:44:36 51°14.158 2°53.841 244.6 13.1 244 8.1
2008-07-17 06:44:41 51°14.149 2°53.815 245.1 13.1 242 8.1
2008-07-17 06:44:45 51°14.143 2°53.794 244.7 13.1 244 8
2008-07-17 06:44:51 51°14.133 2°53.764 244.3 13.1 242 8
2008-07-17 06:44:56 51°14.124 2°53.738 244.3 13.1 242 7.9
2008-07-17 06:45:01 51°14.116 2°53.712 244 13.1 244 8.1
2008-07-17 06:45:06 51°14.107 2°53.686 244.5 13.1 242 8
2008-07-17 06:45:11 51°14.099 2°53.661 244.9 13.1 243 8.1
2008-07-17 06:45:16 51°14.091 2°53.635 244.9 13.1 243 8.1
2008-07-17 06:45:21 51°14.083 2°53.609 244.5 13.1 242 8
2008-07-17 06:45:26 51°14.074 2°53.583 244.6 13.1 243 8.1
2008-07-17 06:45:31 51°14.066 2°53.558 244.5 13.1 242 8.1
2008-07-17 06:45:36 51°14.057 2°53.532 244.3 13.1 242 8.2
2008-07-17 06:45:41 51°14.049 2°53.507 244 13.2 242 8.2
2008-07-17 06:45:45 51°14.042 2°53.486 244.6 13.1 243 8.2
2008-07-17 06:45:51 51°14.032 2°53.455 244.4 13.2 242 8.3
2008-07-17 06:45:56 51°14.024 2°53.429 244.5 13.2 243 8.3
2008-07-17 06:46:01 51°14.015 2°53.403 244.3 13.2 243 8.3
2008-07-17 06:46:06 51°14.006 2°53.377 244.1 13.2 242 8.4
2008-07-17 06:46:11 51°13.998 2°53.352 244.8 13.2 242 8.4
2008-07-17 06:46:16 51°13.989 2°53.326 244 13.3 242 8.4
2008-07-17 06:46:21 51°13.981 2°53.3 244.6 13.2 242 8.5
2008-07-17 06:46:26 51°13.973 2°53.274 244.6 13.2 242 8.5
2008-07-17 06:46:31 51°13.965 2°53.248 244.5 13.2 244 8.5
2008-07-17 06:46:36 51°13.956 2°53.222 245.2 13.2 243 8.6
2008-07-17 06:46:41 51°13.948 2°53.196 245.2 13.2 244 8.6
2008-07-17 06:46:45 51°13.941 2°53.175 245.4 13.2 243 8.7
2008-07-17 06:46:51 51°13.932 2°53.144 245.7 13.2 244 8.7
2008-07-17 06:46:56 51°13.923 2°53.118 245.4 13.2 242 8.7
2008-07-17 06:47:01 51°13.915 2°53.092 244.9 13.2 242 8.7
2008-07-17 06:47:06 51°13.906 2°53.066 244.3 13.3 243 8.8
2008-07-17 06:47:11 51°13.898 2°53.04 245 13.2 243 8.8
2008-07-17 06:47:16 51°13.889 2°53.015 244.3 13.2 241 8.8
2008-07-17 06:47:21 51°13.881 2°52.988 243.8 13.2 243 8.8
2008-07-17 06:47:26 51°13.872 2°52.963 243.8 13.2 241 8.9
2008-07-17 06:47:31 51°13.863 2°52.937 243.8 13.2 243 9
2008-07-17 06:47:36 51°13.854 2°52.911 243.7 13.2 241 9.1
2008-07-17 06:47:41 51°13.846 2°52.885 243.7 13.2 242 9.1
2008-07-17 06:47:45 51°13.839 2°52.865 243.9 13.2 242 9
2008-07-17 06:47:51 51°13.829 2°52.834 244.1 13.2 243 9.1
2008-07-17 06:47:56 51°13.821 2°52.808 244.7 13.1 243 9
2008-07-17 06:48:01 51°13.813 2°52.782 244.7 13.2 244 9.1
2008-07-17 06:48:06 51°13.805 2°52.756 245.3 13.1 244 9.1
2008-07-17 06:48:11 51°13.797 2°52.73 246.2 13.1 244 9.3
2008-07-17 06:48:16 51°13.789 2°52.703 245.7 13.2 245 9.2
2008-07-17 06:48:21 51°13.781 2°52.677 246.7 13.2 244 9.2
2008-07-17 06:48:26 51°13.774 2°52.651 246.8 13.1 245 9.1
2008-07-17 06:48:31 51°13.767 2°52.624 247.4 13.1 247 9.1
2008-07-17 06:48:36 51°13.759 2°52.598 248.3 13.1 246 9.2
2008-07-17 06:48:41 51°13.752 2°52.571 249 13.1 247 9.1
2008-07-17 06:48:45 51°13.747 2°52.55 249.2 13.1 248 9.2
2008-07-17 06:48:51 51°13.739 2°52.518 250.4 13.1 248 9.2
2008-07-17 06:48:56 51°13.732 2°52.491 250 13.1 248 9.2
2008-07-17 06:49:01 51°13.725 2°52.464 250.2 13 248 9.3
2008-07-17 06:49:05 51°13.72 2°52.443 250.4 13 248 9.5
2008-07-17 06:49:11 51°13.712 2°52.41 250.3 13.1 249 9.4
2008-07-17 06:49:16 51°13.705 2°52.384 250.6 13.1 248 9.4
2008-07-17 06:49:21 51°13.699 2°52.357 251 13 249 9.4
2008-07-17 06:49:26 51°13.692 2°52.33 250.9 13 248 9.4
2008-07-17 06:49:31 51°13.686 2°52.303 251 13.1 249 9.5
2008-07-17 06:49:36 51°13.679 2°52.276 251.2 13.1 248 9.4
2008-07-17 06:49:41 51°13.672 2°52.249 251 13.1 249 9.5
2008-07-17 06:49:45 51°13.667 2°52.228 251 12.8 248 9.5
2008-07-17 06:49:51 51°13.66 2°52.198 251.1 12 248 9.5
2008-07-17 06:49:56 51°13.653 2°52.175 251.1 11.4 246 9.4
2008-07-17 06:50:01 51°13.648 2°52.153 250.3 10.6 247 9.5
2008-07-17 06:50:06 51°13.641 2°52.133 249.1 10.1 244 9.7
2008-07-17 06:50:11 51°13.636 2°52.114 247.1 9.4 244 9.7
2008-07-17 06:50:16 51°13.63 2°52.097 246 8.9 241 9.8
2008-07-17 06:50:21 51°13.624 2°52.081 243.8 8.4 239 9.8
2008-07-17 06:50:26 51°13.618 2°52.066 242.1 8.1 239 9.8
2008-07-17 06:50:31 51°13.612 2°52.052 240.4 7.7 237 9.8
2008-07-17 06:50:36 51°13.607 2°52.038 239.2 7.4 235 9.9
2008-07-17 06:50:41 51°13.601 2°52.025 237.6 7.1 236 9.8
2008-07-17 06:50:46 51°13.596 2°52.013 237 6.9 235 9.8
2008-07-17 06:50:51 51°13.59 2°52.001 236.9 6.7 236 9.9
2008-07-17 06:50:56 51°13.585 2°51.989 237.4 6.5 233 9.8
2008-07-17 06:51:01 51°13.58 2°51.978 237.4 6.2 236 9.8
2008-07-17 06:51:05 51°13.576 2°51.969 237.8 6.1 235 9.8
2008-07-17 06:51:11 51°13.571 2°51.956 239 5.9 236 9.9
2008-07-17 06:51:16 51°13.566 2°51.945 239.8 5.7 238 9.9
2008-07-17 06:51:21 51°13.562 2°51.935 241.1 5.6 237 9.8
2008-07-17 06:51:25 51°13.559 2°51.926 242.5 5.5 241 9.8
2008-07-17 06:51:31 51°13.555 2°51.914 244.4 5.3 241 9.9
2008-07-17 06:51:36 51°13.551 2°51.904 246.6 5.2 243 9.9
2008-07-17 06:51:41 51°13.548 2°51.894 248.9 5 244 9.9
2008-07-17 06:51:46 51°13.545 2°51.884 250.3 5 244 9.9
2008-07-17 06:51:51 51°13.542 2°51.875 252.1 4.9 245 9.9
2008-07-17 06:51:56 51°13.539 2°51.865 253.7 4.8 245 9.8
2008-07-17 06:52:01 51°13.537 2°51.855 254.3 4.7 246 9.9
2008-07-17 06:52:06 51°13.534 2°51.846 255 4.7 247 10
2008-07-17 06:52:11 51°13.532 2°51.836 255.7 4.7 246 10
2008-07-17 06:52:16 51°13.529 2°51.827 256 4.7 247 9.9
2008-07-17 06:52:21 51°13.527 2°51.817 256.7 4.6 249 9.9
2008-07-17 06:52:25 51°13.525 2°51.81 257.6 4.6 248 9.9
2008-07-17 06:52:31 51°13.522 2°51.798 258.2 4.6 248 9.9
2008-07-17 06:52:36 51°13.52 2°51.789 258.8 4.6 250 9.9
2008-07-17 06:52:41 51°13.518 2°51.78 259.6 4.6 249 9.9
2008-07-17 06:52:46 51°13.516 2°51.77 260.1 4.6 251 10
2008-07-17 06:52:51 51°13.514 2°51.761 260.8 4.5 251 9.9
2008-07-17 06:52:56 51°13.512 2°51.751 261.1 4.5 253 10
2008-07-17 06:53:01 51°13.51 2°51.742 261.3 4.6 251 10
2008-07-17 06:53:06 51°13.508 2°51.732 261.6 4.6 252 10
2008-07-17 06:53:11 51°13.506 2°51.722 261.6 4.7 252 10
2008-07-17 06:53:16 51°13.504 2°51.712 261.6 4.8 253 10
2008-07-17 06:53:21 51°13.502 2°51.702 261.6 4.9 253 10
2008-07-17 06:53:25 51°13.5 2°51.693 261.8 5 254 10
2008-07-17 06:53:31 51°13.498 2°51.681 262.5 5 254 10
2008-07-17 06:53:36 51°13.496 2°51.67 262.7 5.1 255 10
2008-07-17 06:53:41 51°13.494 2°51.659 263 5.2 254 10
2008-07-17 06:53:46 51°13.492 2°51.648 263.4 5.2 255 10
2008-07-17 06:53:51 51°13.49 2°51.636 263.9 5.3 254 10.1
2008-07-17 06:53:56 51°13.489 2°51.625 264.5 5.3 256 10.1
2008-07-17 06:54:01 51°13.487 2°51.614 265 5.4 256 10
2008-07-17 06:54:06 51°13.485 2°51.602 265.2 5.4 256 10.1
2008-07-17 06:54:11 51°13.483 2°51.59 265.5 5.4 257 10.1
2008-07-17 06:54:16 51°13.481 2°51.579 265.5 5.5 256 10.1
2008-07-17 06:54:21 51°13.48 2°51.567 265.1 5.5 256 10.1
2008-07-17 06:54:25 51°13.478 2°51.557 264.7 5.5 255 10.1
2008-07-17 06:54:31 51°13.476 2°51.543 264.1 5.6 255 10.2
2008-07-17 06:54:35 51°13.474 2°51.534 263.4 5.6 254 10.2
2008-07-17 06:54:41 51°13.471 2°51.519 262.3 5.6 252 10.2
2008-07-17 06:54:46 51°13.469 2°51.508 261.8 5.5 253 10.2
2008-07-17 06:54:51 51°13.467 2°51.497 261.1 5.2 253 10.2
2008-07-17 06:54:56 51°13.465 2°51.486 260.1 5.1 252 10.2
2008-07-17 06:55:01 51°13.462 2°51.476 259.3 4.9 249 10.1
2008-07-17 06:55:06 51°13.46 2°51.466 258.3 4.8 250 10.2
2008-07-17 06:55:11 51°13.458 2°51.457 256.9 4.6 247 10.3
2008-07-17 06:55:16 51°13.455 2°51.447 255.8 4.5 248 10.3
2008-07-17 06:55:21 51°13.452 2°51.439 254.3 4.3 245 10.3
2008-07-17 06:55:26 51°13.45 2°51.43 252.6 4.3 245 10.3
2008-07-17 06:55:31 51°13.447 2°51.422 250.4 4.2 243 10.2
2008-07-17 06:55:36 51°13.444 2°51.414 249 4.1 240 10.3
2008-07-17 06:55:41 51°13.442 2°51.407 247.3 4 240 10.3
2008-07-17 06:55:45 51°13.439 2°51.402 245.7 3.9 240 10.3
2008-07-17 06:55:51 51°13.436 2°51.393 244.3 3.8 237 10.4
2008-07-17 06:55:56 51°13.433 2°51.387 242.9 3.7 237 10.4
2008-07-17 06:56:01 51°13.43 2°51.38 241.6 3.6 235 10.4
2008-07-17 06:56:06 51°13.427 2°51.374 240.4 3.4 234 10.3
2008-07-17 06:56:11 51°13.424 2°51.368 238.7 3.2 233 10.4
2008-07-17 06:56:16 51°13.422 2°51.363 237.8 3.1 232 10.4
2008-07-17 06:56:21 51°13.419 2°51.358 236.4 2.9 229 10.4
2008-07-17 06:56:26 51°13.417 2°51.353 234.7 2.7 232 10.4
2008-07-17 06:56:31 51°13.415 2°51.349 233.8 2.5 228 10.3
2008-07-17 06:56:36 51°13.413 2°51.345 232.6 2.4 228 10.3
2008-07-17 06:56:41 51°13.41 2°51.341 231.2 2.3 228 10.3
2008-07-17 06:56:46 51°13.408 2°51.338 230.4 2.2 226 10.4
2008-07-17 06:56:51 51°13.406 2°51.333 229.3 2.1 225 10.3
2008-07-17 06:56:56 51°13.404 2°51.33 228.1 2.1 225 10.4
2008-07-17 06:57:01 51°13.402 2°51.328 227.1 2.1 224 10.3
2008-07-17 06:57:05 51°13.401 2°51.325 225.7 2.1 225 10.3
2008-07-17 06:57:11 51°13.398 2°51.321 224.7 2 222 10.4
2008-07-17 06:57:16 51°13.396 2°51.318 223.6 2 220 10.3
2008-07-17 06:57:21 51°13.394 2°51.315 222.7 2 223 10.3
2008-07-17 06:57:26 51°13.392 2°51.312 221.8 2 223 10.3
2008-07-17 06:57:31 51°13.39 2°51.309 221.1 2 224 10.3
2008-07-17 06:57:36 51°13.388 2°51.306 220.7 2 220 10.3
2008-07-17 06:57:41 51°13.386 2°51.303 220.1 2 220 10.3
2008-07-17 06:57:46 51°13.384 2°51.301 219.8 2 222 10.3
2008-07-17 06:57:51 51°13.382 2°51.298 219.8 1.9 220 10.3
2008-07-17 06:57:56 51°13.38 2°51.295 219.8 2 222 10.3
2008-07-17 06:58:01 51°13.378 2°51.292 219.9 2 223 10.3
2008-07-17 06:58:06 51°13.376 2°51.29 220.2 1.9 220 10.3
2008-07-17 06:58:11 51°13.374 2°51.287 220.4 1.9 222 10.3
2008-07-17 06:58:16 51°13.372 2°51.284 220.6 1.9 220 10.3
2008-07-17 06:58:21 51°13.37 2°51.281 220.9 1.9 222 10.3
2008-07-17 06:58:25 51°13.368 2°51.279 221.3 1.9 223 10.4
2008-07-17 06:58:31 51°13.366 2°51.276 222 1.9 220 10.3
2008-07-17 06:58:36 51°13.364 2°51.273 222.1 1.9 224 10.3
2008-07-17 06:58:41 51°13.362 2°51.27 222.5 1.9 219 10.3
2008-07-17 06:58:46 51°13.36 2°51.267 222.8 1.9 224 10.3
2008-07-17 06:58:51 51°13.358 2°51.264 223.2 1.9 222 10.3
2008-07-17 06:58:56 51°13.356 2°51.262 223.6 1.8 223 10.2
2008-07-17 06:59:01 51°13.355 2°51.259 223.9 1.8 221 10.3
2008-07-17 06:59:06 51°13.353 2°51.256 224.2 1.8 225 10.2
2008-07-17 06:59:11 51°13.351 2°51.254 224.7 1.8 223 10.2
2008-07-17 06:59:16 51°13.349 2°51.251 225 1.8 221 10.2
2008-07-17 06:59:21 51°13.347 2°51.248 225.4 1.8 226 10.2
2008-07-17 06:59:26 51°13.345 2°51.246 225.8 1.8 220 10.3
2008-07-17 06:59:31 51°13.344 2°51.243 226.2 1.8 226 10.3
2008-07-17 06:59:36 51°13.342 2°51.24 226.4 1.8 222 10.3
2008-07-17 06:59:41 51°13.34 2°51.237 226.9 1.7 223 10.3
2008-07-17 06:59:46 51°13.338 2°51.235 227.1 1.8 223 10.3
2008-07-17 06:59:51 51°13.336 2°51.232 227.3 1.7 224 10.3
2008-07-17 06:59:56 51°13.335 2°51.23 227.8 1.7 221 10.2
2008-07-17 07:00:01 51°13.333 2°51.227 228 1.7 225 10.3
2008-07-17 07:00:05 51°13.332 2°51.225 228.5 1.7 223 10.3
2008-07-17 07:00:11 51°13.329 2°51.222 229 1.7 224 10.3
2008-07-17 07:00:16 51°13.328 2°51.219 229.3 1.7 225 10.3
2008-07-17 07:00:21 51°13.326 2°51.216 229.6 1.7 227 10.3
2008-07-17 07:00:26 51°13.324 2°51.214 230 1.8 222 10.3
2008-07-17 07:00:31 51°13.323 2°51.21 230.3 2.1 226 10.3
2008-07-17 07:00:36 51°13.32 2°51.206 230.5 2.5 225 10.3
2008-07-17 07:00:41 51°13.317 2°51.201 230.6 3 228 10.3
2008-07-17 07:00:46 51°13.314 2°51.196 230.6 3.3 229 10.3
2008-07-17 07:00:51 51°13.311 2°51.19 230.9 3.7 227 10.3
2008-07-17 07:00:56 51°13.307 2°51.182 231.9 4.3 231 10.3
2008-07-17 07:01:01 51°13.303 2°51.174 233.1 5 233 10.2
2008-07-17 07:01:05 51°13.299 2°51.166 235 5.7 234 10.2
2008-07-17 07:01:11 51°13.293 2°51.152 236.4 6.6 236 10.2
2008-07-17 07:01:16 51°13.288 2°51.138 238 7.4 237 10.2
2008-07-17 07:01:21 51°13.281 2°51.123 238.7 8.2 239 10.2
2008-07-17 07:01:26 51°13.275 2°51.106 239.6 8.7 237 10.2
2008-07-17 07:01:31 51°13.268 2°51.088 239.5 9.3 240 10.1
2008-07-17 07:01:36 51°13.261 2°51.068 240.1 10.1 239 10.2
2008-07-17 07:01:41 51°13.253 2°51.047 240.6 10.9 240 10.2
2008-07-17 07:01:46 51°13.246 2°51.023 241 11.3 239 10.1
2008-07-17 07:01:51 51°13.238 2°51.001 240.8 11.6 240 10.2
2008-07-17 07:01:56 51°13.23 2°50.978 240.8 11.9 240 10.1
2008-07-17 07:02:01 51°13.221 2°50.955 240.6 12.2 240 10.1
2008-07-17 07:02:06 51°13.213 2°50.932 240.6 12.4 240 10.1
2008-07-17 07:02:11 51°13.204 2°50.908 240.9 12.6 240 10.1
2008-07-17 07:02:16 51°13.195 2°50.884 241 12.7 240 10.2
2008-07-17 07:02:21 51°13.186 2°50.86 240.7 12.7 240 10.2
2008-07-17 07:02:26 51°13.177 2°50.836 240.5 12.8 239 10.2
2008-07-17 07:02:31 51°13.168 2°50.811 240.4 12.8 240 10.2
2008-07-17 07:02:36 51°13.159 2°50.787 240 12.9 239 10.2
2008-07-17 07:02:41 51°13.15 2°50.763 240.1 12.9 240 10.2
2008-07-17 07:02:46 51°13.14 2°50.738 240.2 12.9 239 10.2
2008-07-17 07:02:51 51°13.131 2°50.714 239.9 12.9 240 10.2
2008-07-17 07:02:56 51°13.122 2°50.689 240.1 13 239 10.2
2008-07-17 07:03:01 51°13.114 2°50.664 241 13 242 10.2
2008-07-17 07:03:06 51°13.105 2°50.638 242.1 13 242 10.2
2008-07-17 07:03:11 51°13.096 2°50.613 242.7 13 243 10.3
2008-07-17 07:03:16 51°13.088 2°50.588 243 13.1 242 10.3
2008-07-17 07:03:21 51°13.08 2°50.562 243.6 13.1 243 10.3
2008-07-17 07:03:26 51°13.071 2°50.537 243.7 13.1 242 10.2
2008-07-17 07:03:31 51°13.063 2°50.511 243.5 13.1 242 10.2
2008-07-17 07:03:36 51°13.055 2°50.485 243.5 13.1 243 10.3
2008-07-17 07:03:41 51°13.047 2°50.46 244 13.1 243 10.3
2008-07-17 07:03:45 51°13.04 2°50.439 243.8 13.1 242 10.4
2008-07-17 07:03:51 51°13.029 2°50.409 243.6 13.1 242 10.3
2008-07-17 07:03:56 51°13.021 2°50.383 242.9 13.1 242 10.4
2008-07-17 07:04:01 51°13.012 2°50.358 242.4 13.2 240 10.3
2008-07-17 07:04:06 51°13.003 2°50.333 241.5 13.2 242 10.4
2008-07-17 07:04:11 51°12.994 2°50.307 241.7 13.2 240 10.4
2008-07-17 07:04:16 51°12.985 2°50.282 241.4 13.1 241 10.4
2008-07-17 07:04:21 51°12.976 2°50.257 240.9 13.1 239 10.4
2008-07-17 07:04:26 51°12.966 2°50.232 240.1 13.1 238 10.4
2008-07-17 07:04:31 51°12.957 2°50.208 239.4 13.1 240 10.4
2008-07-17 07:04:36 51°12.947 2°50.183 239.6 13.1 238 10.4
2008-07-17 07:04:41 51°12.938 2°50.158 238.3 13.1 238 10.5
2008-07-17 07:04:46 51°12.928 2°50.134 238.2 13.2 237 10.4
2008-07-17 07:04:51 51°12.918 2°50.11 236.6 13.2 237 10.4
2008-07-17 07:04:56 51°12.908 2°50.086 236.5 13.1 236 10.5
2008-07-17 07:05:01 51°12.897 2°50.061 236.3 13.1 236 10.4
2008-07-17 07:05:05 51°12.889 2°50.042 235.8 13.1 236 10.5
2008-07-17 07:05:11 51°12.876 2°50.013 235.1 13.2 235 10.4
2008-07-17 07:05:16 51°12.866 2°49.988 235.6 13.1 237 10.4
2008-07-17 07:05:21 51°12.856 2°49.965 235.2 13.2 236 10.5
2008-07-17 07:05:26 51°12.846 2°49.94 236.2 13.2 238 10.5
2008-07-17 07:05:31 51°12.836 2°49.916 237.7 13.2 236 10.5
2008-07-17 07:05:36 51°12.827 2°49.891 237.7 13.2 240 10.5
2008-07-17 07:05:41 51°12.817 2°49.866 239.2 13.2 238 10.5
2008-07-17 07:05:46 51°12.808 2°49.841 239.2 13.2 240 10.5
2008-07-17 07:05:51 51°12.799 2°49.816 240.3 13.1 240 10.5
2008-07-17 07:05:56 51°12.79 2°49.791 240.3 13.1 240 10.5
2008-07-17 07:06:01 51°12.78 2°49.767 240 13.1 238 10.6
2008-07-17 07:06:06 51°12.771 2°49.742 238.7 13 238 10.5
2008-07-17 07:06:11 51°12.761 2°49.718 237.7 13.2 237 10.5
2008-07-17 07:06:16 51°12.752 2°49.693 238.1 13 239 10.4
2008-07-17 07:06:21 51°12.741 2°49.669 237.2 13.1 236 10.4
2008-07-17 07:06:26 51°12.732 2°49.644 237.8 13.1 239 10.5
2008-07-17 07:06:31 51°12.722 2°49.621 237.4 13.1 235 10.6
2008-07-17 07:06:36 51°12.712 2°49.596 237.4 13.1 239 10.5
2008-07-17 07:06:41 51°12.702 2°49.572 237.6 13.1 236 10.5
2008-07-17 07:06:46 51°12.693 2°49.547 237.3 13 238 10.4
2008-07-17 07:06:51 51°12.683 2°49.523 237.7 13 237 10.6
2008-07-17 07:06:56 51°12.673 2°49.499 237.6 13.1 237 10.5
2008-07-17 07:07:01 51°12.664 2°49.474 238 13 238 10.6
2008-07-17 07:07:06 51°12.654 2°49.45 237.9 13.1 237 10.6
2008-07-17 07:07:11 51°12.644 2°49.425 237.8 13.1 239 10.5
2008-07-17 07:07:16 51°12.634 2°49.401 237.9 13.1 236 10.6
2008-07-17 07:07:21 51°12.625 2°49.377 237.6 13.1 238 10.6
2008-07-17 07:07:26 51°12.615 2°49.353 237.5 13.1 237 10.6
2008-07-17 07:07:31 51°12.605 2°49.328 237.7 13.2 238 10.7
2008-07-17 07:07:36 51°12.595 2°49.303 237.9 13.2 238 10.6
2008-07-17 07:07:41 51°12.585 2°49.279 238 13.2 237 10.5
2008-07-17 07:07:45 51°12.578 2°49.258 238.5 13.2 240 10.6
2008-07-17 07:07:51 51°12.566 2°49.229 238.6 13.2 237 10.5
2008-07-17 07:07:56 51°12.557 2°49.204 238.4 13.2 239 10.5
2008-07-17 07:08:01 51°12.547 2°49.179 238.7 13.2 238 10.6
2008-07-17 07:08:06 51°12.537 2°49.155 238.4 13.2 239 10.6
2008-07-17 07:08:11 51°12.528 2°49.13 238.3 13.2 238 10.5
2008-07-17 07:08:16 51°12.518 2°49.105 238.2 13.2 238 10.5
2008-07-17 07:08:21 51°12.508 2°49.08 238.3 13.2 238 10.6
2008-07-17 07:08:25 51°12.501 2°49.061 238 13.2 238 10.5
2008-07-17 07:08:31 51°12.489 2°49.03 238.9 13.1 240 10.5
2008-07-17 07:08:36 51°12.479 2°49.006 238.2 13.2 237 10.5
2008-07-17 07:08:41 51°12.47 2°48.981 239 13.1 238 10.4
2008-07-17 07:08:46 51°12.46 2°48.957 238.2 13.2 237 10.4
2008-07-17 07:08:51 51°12.451 2°48.931 238.7 13.2 240 10.4
2008-07-17 07:08:56 51°12.441 2°48.907 238.7 13.2 237 10.4
2008-07-17 07:09:01 51°12.432 2°48.881 238.2 13.2 240 10.5
2008-07-17 07:09:06 51°12.423 2°48.857 239.2 13.1 240 10.4
2008-07-17 07:09:11 51°12.415 2°48.831 241.9 13.1 244 10.5
2008-07-17 07:09:16 51°12.407 2°48.805 243.5 13.1 244 10.4
2008-07-17 07:09:21 51°12.4 2°48.778 245.3 13.1 246 10.5
2008-07-17 07:09:26 51°12.392 2°48.752 246.7 13.1 245 10.4
2008-07-17 07:09:31 51°12.386 2°48.725 247.7 13.1 249 10.5
2008-07-17 07:09:36 51°12.378 2°48.699 248.3 13.1 247 10.5
2008-07-17 07:09:41 51°12.372 2°48.672 249.3 13.1 249 10.5
2008-07-17 07:09:45 51°12.367 2°48.65 249.6 13.1 248 10.6
2008-07-17 07:09:51 51°12.359 2°48.618 250 13.1 250 10.6
2008-07-17 07:09:56 51°12.353 2°48.591 250.9 13.1 249 10.7
2008-07-17 07:10:01 51°12.346 2°48.564 250.4 13.1 250 10.7
2008-07-17 07:10:06 51°12.34 2°48.537 251 13 250 10.7
2008-07-17 07:10:11 51°12.334 2°48.509 250.3 13.1 250 10.8
2008-07-17 07:10:16 51°12.327 2°48.482 250.8 13.1 249 10.8
2008-07-17 07:10:21 51°12.321 2°48.455 250.3 13.1 250 10.8
2008-07-17 07:10:26 51°12.315 2°48.428 250.3 13.1 250 10.9
2008-07-17 07:10:31 51°12.308 2°48.401 250.8 13.1 249 10.9
2008-07-17 07:10:36 51°12.302 2°48.374 250.7 13.1 249 10.8
2008-07-17 07:10:41 51°12.296 2°48.347 250.3 13.1 250 10.9
2008-07-17 07:10:46 51°12.289 2°48.32 250.3 13.1 249 10.9
2008-07-17 07:10:51 51°12.283 2°48.292 250.8 13.2 249 11
2008-07-17 07:10:56 51°12.276 2°48.265 250.3 13.1 250 11
2008-07-17 07:11:01 51°12.27 2°48.238 250.7 13.1 247 11
2008-07-17 07:11:06 51°12.264 2°48.211 250.3 13.1 251 11
2008-07-17 07:11:11 51°12.257 2°48.184 251 13.1 247 11.1
2008-07-17 07:11:16 51°12.251 2°48.156 250.3 13.1 251 11.2
2008-07-17 07:11:21 51°12.244 2°48.13 250.3 13.1 248 10.8
2008-07-17 07:11:26 51°12.238 2°48.102 250.3 13.1 251 11.1
2008-07-17 07:11:31 51°12.231 2°48.075 250.5 13.1 249 11.2
2008-07-17 07:11:36 51°12.225 2°48.048 250.5 13.1 251 11.3
2008-07-17 07:11:41 51°12.219 2°48.021 250.3 13.1 249 11.3
2008-07-17 07:11:46 51°12.213 2°47.994 250.6 13.1 250 11.3
2008-07-17 07:11:51 51°12.206 2°47.967 250.6 13.1 249 11.3
2008-07-17 07:11:56 51°12.2 2°47.94 250.3 13.1 250 11.4
2008-07-17 07:12:01 51°12.193 2°47.913 250.5 13.1 248 11.3
2008-07-17 07:12:05 51°12.188 2°47.891 250 13.1 250 11.4
2008-07-17 07:12:11 51°12.18 2°47.859 249.9 13.1 248 11.5
2008-07-17 07:12:16 51°12.174 2°47.831 250 13.2 251 11.4
2008-07-17 07:12:21 51°12.168 2°47.804 251.3 13.2 250 11.4
2008-07-17 07:12:26 51°12.162 2°47.776 251.8 13.2 251 11.5
2008-07-17 07:12:31 51°12.156 2°47.748 252.1 13.2 252 11.5
2008-07-17 07:12:36 51°12.15 2°47.721 252.9 13.2 251 11.5
2008-07-17 07:12:41 51°12.145 2°47.693 252.5 13.2 253 11.4
2008-07-17 07:12:46 51°12.139 2°47.666 253.5 13.2 252 11.6
2008-07-17 07:12:51 51°12.134 2°47.638 253.8 13.1 253 11.5
2008-07-17 07:12:56 51°12.128 2°47.61 253.9 13.2 252 11.6
2008-07-17 07:13:01 51°12.123 2°47.582 254 13.1 253 11.7
2008-07-17 07:13:06 51°12.117 2°47.555 254 13.1 252 11.5
2008-07-17 07:13:11 51°12.112 2°47.527 253.9 13.1 253 11.7
2008-07-17 07:13:16 51°12.106 2°47.499 253.9 13.1 252 11.6
2008-07-17 07:13:21 51°12.101 2°47.471 253.8 13.1 253 11.7
2008-07-17 07:13:26 51°12.095 2°47.444 253.9 13.1 252 11.7
2008-07-17 07:13:31 51°12.09 2°47.416 253.4 13.1 253 11.7
2008-07-17 07:13:36 51°12.084 2°47.389 252.7 13.1 252 11.8
2008-07-17 07:13:41 51°12.078 2°47.361 253.4 13.1 251 11.7
2008-07-17 07:13:45 51°12.074 2°47.34 252.5 13.1 253 11.7
2008-07-17 07:13:51 51°12.067 2°47.306 253.5 13.1 250 11.8
2008-07-17 07:13:56 51°12.061 2°47.279 252.7 13.1 252 11.8
2008-07-17 07:14:01 51°12.056 2°47.252 252.6 13.1 252 11.8
2008-07-17 07:14:06 51°12.05 2°47.224 253.2 13.1 251 11.8
2008-07-17 07:14:11 51°12.044 2°47.196 252.8 13.1 252 11.8
2008-07-17 07:14:16 51°12.038 2°47.169 252.5 13.1 251 11.8
2008-07-17 07:14:21 51°12.032 2°47.142 252.5 13.1 251 11.9
2008-07-17 07:14:25 51°12.028 2°47.12 252.3 13.1 251 11.9
2008-07-17 07:14:31 51°12.02 2°47.087 251.1 13.1 250 11.9
2008-07-17 07:14:36 51°12.014 2°47.06 250.6 13.1 249 11.9
2008-07-17 07:14:41 51°12.007 2°47.033 249.8 13.1 248 11.9
2008-07-17 07:14:46 51°12 2°47.006 248.9 13.1 249 11.9
2008-07-17 07:14:51 51°11.993 2°46.98 249.6 13 247 11.9
2008-07-17 07:14:56 51°11.987 2°46.953 248.7 13 249 11.9
2008-07-17 07:15:01 51°11.98 2°46.926 249.1 13.1 247 11.9
2008-07-17 07:15:06 51°11.973 2°46.899 248.9 13.1 249 11.9
2008-07-17 07:15:11 51°11.967 2°46.872 249 13.1 248 11.9
2008-07-17 07:15:16 51°11.96 2°46.845 249 13.2 249 11.9
2008-07-17 07:15:21 51°11.954 2°46.818 249.5 13.1 248 12
2008-07-17 07:15:26 51°11.947 2°46.792 249.2 13.1 248 11.9
2008-07-17 07:15:31 51°11.941 2°46.764 248.8 13.1 250 11.9
2008-07-17 07:15:36 51°11.934 2°46.738 249.2 13.1 247 11.9
2008-07-17 07:15:41 51°11.927 2°46.711 248.9 13.1 249 12.1
2008-07-17 07:15:46 51°11.92 2°46.684 248.8 13.1 248 12
2008-07-17 07:15:51 51°11.913 2°46.657 248.6 13.1 248 12
2008-07-17 07:15:56 51°11.907 2°46.63 249.2 13.1 250 12
2008-07-17 07:16:01 51°11.9 2°46.603 249.9 13.1 248 12.1
2008-07-17 07:16:05 51°11.896 2°46.581 250.5 13 251 12.1
2008-07-17 07:16:11 51°11.888 2°46.549 250.3 13.1 248 12.1
2008-07-17 07:16:16 51°11.883 2°46.521 251.1 13 251 12.1
2008-07-17 07:16:21 51°11.876 2°46.495 250.8 13.1 249 12.1
2008-07-17 07:16:26 51°11.87 2°46.467 250.6 13.1 252 12
2008-07-17 07:16:30 51°11.865 2°46.446 251.2 13.1 250 12
2008-07-17 07:16:36 51°11.858 2°46.413 251.5 13 252 12.1
2008-07-17 07:16:41 51°11.852 2°46.386 251.6 13.1 250 12.1
2008-07-17 07:16:46 51°11.846 2°46.359 251.3 13.1 252 12.1
2008-07-17 07:16:51 51°11.84 2°46.332 251.7 13 250 12.1
2008-07-17 07:16:56 51°11.834 2°46.304 251.2 13.1 251 12.1
2008-07-17 07:17:01 51°11.828 2°46.277 251.7 13.1 251 12.1
2008-07-17 07:17:06 51°11.822 2°46.25 251.7 13.1 251 12.1
2008-07-17 07:17:11 51°11.817 2°46.222 251.5 13.1 251 12.1
2008-07-17 07:17:16 51°11.811 2°46.195 251.6 13.1 251 12.1
2008-07-17 07:17:21 51°11.805 2°46.168 251.8 13.1 251 12.1
2008-07-17 07:17:25 51°11.8 2°46.146 251.6 13 251 12.1
2008-07-17 07:17:31 51°11.793 2°46.113 251.6 13.1 251 12.1
2008-07-17 07:17:36 51°11.787 2°46.086 251.7 13.1 251 12.1
2008-07-17 07:17:41 51°11.781 2°46.059 252.1 13 251 12.1
2008-07-17 07:17:46 51°11.776 2°46.031 251.9 13.1 251 12
2008-07-17 07:17:51 51°11.769 2°46.004 251.4 13.2 250 12.1
2008-07-17 07:17:56 51°11.764 2°45.977 251.8 13.1 251 12.1
2008-07-17 07:18:01 51°11.758 2°45.949 251.4 13.1 252 12.1
2008-07-17 07:18:06 51°11.752 2°45.922 252.1 13.1 252 12.1
2008-07-17 07:18:11 51°11.746 2°45.894 252.2 13.1 251 12.1
2008-07-17 07:18:16 51°11.74 2°45.867 251.8 13.1 251 12.1
2008-07-17 07:18:21 51°11.735 2°45.84 252.3 13 251 12.2
2008-07-17 07:18:26 51°11.729 2°45.812 251.8 13.1 251 12.1
2008-07-17 07:18:31 51°11.723 2°45.785 251.5 13.1 252 12.2
2008-07-17 07:18:36 51°11.717 2°45.758 252.1 13.1 251 12
2008-07-17 07:18:41 51°11.711 2°45.73 251.8 13.1 252 12
2008-07-17 07:18:45 51°11.707 2°45.708 252.5 13.1 253 12.1
2008-07-17 07:18:51 51°11.701 2°45.675 253.1 13.1 253 12.1
2008-07-17 07:18:56 51°11.695 2°45.647 253.8 13.2 253 12.1
2008-07-17 07:19:01 51°11.69 2°45.619 254.1 13.1 254 12.1
2008-07-17 07:19:06 51°11.685 2°45.591 254.7 13.1 254 12.1
2008-07-17 07:19:11 51°11.68 2°45.563 255.3 13.2 254 12.2
2008-07-17 07:19:16 51°11.675 2°45.536 255.3 13.1 254 12.2
2008-07-17 07:19:21 51°11.67 2°45.508 255.4 13.2 253 12.2
2008-07-17 07:19:26 51°11.665 2°45.48 254.3 13.1 253 12.2
2008-07-17 07:19:31 51°11.659 2°45.453 252.5 13.1 251 12.1
2008-07-17 07:19:36 51°11.653 2°45.426 251.8 13.2 251 12.2
2008-07-17 07:19:41 51°11.646 2°45.399 251 13.1 249 12.1
2008-07-17 07:19:46 51°11.64 2°45.372 249.9 13.1 250 12.2
2008-07-17 07:19:51 51°11.634 2°45.344 249.9 13.2 248 12.1
2008-07-17 07:19:56 51°11.627 2°45.317 249.4 13.1 250 12.1
2008-07-17 07:20:01 51°11.621 2°45.29 249.2 13.1 248 12.1
2008-07-17 07:20:06 51°11.614 2°45.263 248.8 13.2 249 12.1
2008-07-17 07:20:11 51°11.607 2°45.236 248.9 13.1 249 12.1
2008-07-17 07:20:16 51°11.601 2°45.209 248.9 13.1 249 12
2008-07-17 07:20:21 51°11.594 2°45.182 248.9 13.1 249 12.1
2008-07-17 07:20:26 51°11.587 2°45.155 248.6 13.2 249 12.1
2008-07-17 07:20:31 51°11.581 2°45.128 248.6 13.2 249 12.1
2008-07-17 07:20:36 51°11.574 2°45.101 248.9 13.2 249 12
2008-07-17 07:20:41 51°11.568 2°45.074 249.1 13.1 248 12.1
2008-07-17 07:20:46 51°11.56 2°45.047 248.1 13.2 248 12.1
2008-07-17 07:20:51 51°11.554 2°45.02 248.1 13.2 248 12.1
2008-07-17 07:20:56 51°11.547 2°44.993 247.8 13.2 248 12.1
2008-07-17 07:21:01 51°11.54 2°44.966 247.8 13.2 249 12.1
2008-07-17 07:21:06 51°11.533 2°44.939 248.5 13.2 249 12
2008-07-17 07:21:11 51°11.526 2°44.912 248.5 13.2 248 12
2008-07-17 07:21:16 51°11.52 2°44.885 248.4 13.2 248 12
2008-07-17 07:21:21 51°11.513 2°44.857 248.3 13.2 249 12
2008-07-17 07:21:26 51°11.506 2°44.83 248.4 13.2 249 12
2008-07-17 07:21:31 51°11.499 2°44.803 248.6 13.2 248 12
2008-07-17 07:21:36 51°11.493 2°44.776 248.4 13.1 248 12
2008-07-17 07:21:41 51°11.486 2°44.749 247.9 13.2 249 12
2008-07-17 07:21:46 51°11.479 2°44.722 248.3 13.2 248 12
2008-07-17 07:21:51 51°11.473 2°44.695 248.7 13.1 249 12
2008-07-17 07:21:56 51°11.466 2°44.668 248.7 13.2 248 12
2008-07-17 07:22:01 51°11.459 2°44.641 248.4 13.2 249 12
2008-07-17 07:22:06 51°11.452 2°44.614 248.4 13.2 247 12
2008-07-17 07:22:11 51°11.445 2°44.587 248.1 13.2 249 12
2008-07-17 07:22:16 51°11.439 2°44.56 248.1 13.2 248 12.1
2008-07-17 07:22:21 51°11.432 2°44.533 248.5 13.2 248 12
2008-07-17 07:22:26 51°11.425 2°44.506 248.1 13.2 248 12.1
2008-07-17 07:22:31 51°11.418 2°44.479 248.5 13.1 248 12
2008-07-17 07:22:36 51°11.411 2°44.452 247.8 13.2 248 12
2008-07-17 07:22:41 51°11.405 2°44.425 248.4 13.2 249 11.9
2008-07-17 07:22:46 51°11.398 2°44.398 248.4 13.1 247 12.1
2008-07-17 07:22:51 51°11.391 2°44.371 248 13.2 248 12
2008-07-17 07:22:56 51°11.385 2°44.344 248.4 13.2 250 12
2008-07-17 07:23:01 51°11.378 2°44.317 248.9 13.2 248 11.9
2008-07-17 07:23:06 51°11.371 2°44.29 248.6 13.2 249 12
2008-07-17 07:23:11 51°11.365 2°44.263 248.9 13.2 249 11.9
2008-07-17 07:23:16 51°11.359 2°44.236 249.3 13.1 250 12
2008-07-17 07:23:21 51°11.352 2°44.209 249.2 13.2 249 11.9
2008-07-17 07:23:26 51°11.346 2°44.181 249.1 13.2 250 12
2008-07-17 07:23:31 51°11.339 2°44.154 249.3 13.1 248 11.9
2008-07-17 07:23:36 51°11.333 2°44.127 249.1 13.1 249 11.9
2008-07-17 07:23:41 51°11.325 2°44.101 247.7 13.2 247 11.9
2008-07-17 07:23:46 51°11.318 2°44.074 246.9 13.1 248 12
2008-07-17 07:23:51 51°11.311 2°44.048 246.4 13.1 246 12
2008-07-17 07:23:56 51°11.304 2°44.021 246.3 13.1 246 11.9
2008-07-17 07:24:01 51°11.296 2°43.995 245.7 13.1 247 12
2008-07-17 07:24:05 51°11.291 2°43.973 246.2 13.1 246 11.9
2008-07-17 07:24:11 51°11.281 2°43.941 245.5 13.2 246 11.9
2008-07-17 07:24:16 51°11.274 2°43.915 245.6 13.2 246 12
2008-07-17 07:24:21 51°11.267 2°43.889 245.2 13.1 246 12
2008-07-17 07:24:26 51°11.259 2°43.862 245.1 13.1 246 11.9
2008-07-17 07:24:31 51°11.252 2°43.836 245.1 13.1 246 11.9
2008-07-17 07:24:36 51°11.244 2°43.809 245.6 13.1 246 11.9
2008-07-17 07:24:41 51°11.237 2°43.783 245.4 13.1 247 12
2008-07-17 07:24:46 51°11.23 2°43.756 246 13.1 247 11.8
2008-07-17 07:24:51 51°11.223 2°43.73 246.5 13.1 247 11.9
2008-07-17 07:24:56 51°11.215 2°43.703 246.7 13.1 246 11.9
2008-07-17 07:25:01 51°11.208 2°43.677 246.4 13.1 247 11.8
2008-07-17 07:25:06 51°11.201 2°43.65 246.6 13.1 247 11.8
2008-07-17 07:25:11 51°11.194 2°43.623 246.7 13.1 247 11.8
2008-07-17 07:25:16 51°11.187 2°43.597 246.6 13.1 247 11.8
2008-07-17 07:25:21 51°11.18 2°43.57 246.6 13.1 247 11.9
2008-07-17 07:25:26 51°11.173 2°43.544 246.6 13.1 247 11.8
2008-07-17 07:25:31 51°11.165 2°43.517 246.2 13.1 247 11.8
2008-07-17 07:25:36 51°11.159 2°43.491 247.2 13 248 11.8
2008-07-17 07:25:41 51°11.151 2°43.464 246.3 13.1 247 11.8
2008-07-17 07:25:46 51°11.144 2°43.438 246.1 13.1 247 11.8
2008-07-17 07:25:51 51°11.137 2°43.411 246 13.1 247 11.8
2008-07-17 07:25:56 51°11.13 2°43.385 246.4 13.1 247 11.8
2008-07-17 07:26:01 51°11.123 2°43.358 246.7 13.1 247 11.8
2008-07-17 07:26:05 51°11.118 2°43.337 247.1 13 249 11.9
2008-07-17 07:26:11 51°11.111 2°43.304 250.1 12.8 251 11.8
2008-07-17 07:26:16 51°11.106 2°43.278 251.2 12.5 253 11.8
2008-07-17 07:26:21 51°11.101 2°43.252 253.2 12.2 253 11.8
2008-07-17 07:26:26 51°11.097 2°43.227 254.5 11.9 256 11.8
2008-07-17 07:26:31 51°11.092 2°43.201 255.8 11.8 255 11.9
2008-07-17 07:26:36 51°11.089 2°43.176 256.7 11.7 256 11.9
2008-07-17 07:26:41 51°11.085 2°43.152 257.1 11.5 256 11.9
2008-07-17 07:26:46 51°11.082 2°43.128 257.3 11.2 257 12
2008-07-17 07:26:51 51°11.078 2°43.105 257.7 10.6 257 11.9
2008-07-17 07:26:56 51°11.075 2°43.084 258.3 9.9 256 11.9
2008-07-17 07:27:01 51°11.072 2°43.063 258.1 9.5 257 11.9
2008-07-17 07:27:06 51°11.069 2°43.044 258.3 9.1 257 11.9
2008-07-17 07:27:11 51°11.066 2°43.025 258.8 8.7 257 12
2008-07-17 07:27:16 51°11.064 2°43.007 258.8 8.4 258 12
2008-07-17 07:27:21 51°11.061 2°42.989 259.6 8.1 259 12.1
2008-07-17 07:27:26 51°11.06 2°42.972 261.6 7.8 262 12.1
2008-07-17 07:27:31 51°11.058 2°42.956 265.1 7.4 263 12.1
2008-07-17 07:27:36 51°11.058 2°42.94 267.6 7.2 266 12
2008-07-17 07:27:41 51°11.058 2°42.925 270.7 6.8 268 12.1
2008-07-17 07:27:46 51°11.057 2°42.91 272.3 6.7 268 12
2008-07-17 07:27:51 51°11.057 2°42.896 273.7 6.5 269 12
2008-07-17 07:27:56 51°11.057 2°42.881 274.3 6.4 269 12.1
2008-07-17 07:28:01 51°11.057 2°42.868 274.9 6.2 270 12.1
2008-07-17 07:28:06 51°11.057 2°42.854 275.2 6.2 270 12.2
2008-07-17 07:28:11 51°11.057 2°42.841 275.7 6.1 270 12.1
2008-07-17 07:28:16 51°11.057 2°42.827 276.1 6 270 12.1
2008-07-17 07:28:21 51°11.057 2°42.814 276.3 5.9 271 12.1
2008-07-17 07:28:25 51°11.057 2°42.804 276.5 5.8 271 12.1
2008-07-17 07:28:31 51°11.057 2°42.789 276.5 5.8 271 12.1
2008-07-17 07:28:36 51°11.058 2°42.776 277.1 5.7 272 12
2008-07-17 07:28:41 51°11.058 2°42.764 277.8 5.6 273 12.1
2008-07-17 07:28:46 51°11.058 2°42.752 278.5 5.6 273 12.1
2008-07-17 07:28:51 51°11.059 2°42.74 279.1 5.5 273 12.1
2008-07-17 07:28:56 51°11.059 2°42.728 279.7 5.5 274 12.2
2008-07-17 07:29:01 51°11.06 2°42.716 280.4 5.3 275 12.2
2008-07-17 07:29:06 51°11.06 2°42.704 281.1 5.4 275 12.1
2008-07-17 07:29:11 51°11.061 2°42.692 281.6 5.4 275 12.2
2008-07-17 07:29:16 51°11.062 2°42.68 282.1 5.4 275 12.1
2008-07-17 07:29:21 51°11.063 2°42.669 282.2 5.4 276 12.1
2008-07-17 07:29:26 51°11.063 2°42.657 282.4 5.5 276 12
2008-07-17 07:29:31 51°11.064 2°42.645 282.3 5.5 276 12.1
2008-07-17 07:29:36 51°11.065 2°42.632 282.2 5.5 275 12
2008-07-17 07:29:41 51°11.066 2°42.62 282.2 5.6 276 12
2008-07-17 07:29:46 51°11.066 2°42.608 282 5.6 275 12
2008-07-17 07:29:51 51°11.067 2°42.595 281.9 5.6 277 12
2008-07-17 07:29:56 51°11.068 2°42.583 281.7 5.7 275 12.1
2008-07-17 07:30:01 51°11.069 2°42.57 281.5 5.7 275 12
2008-07-17 07:30:05 51°11.069 2°42.56 281.4 5.7 275 12
2008-07-17 07:30:11 51°11.07 2°42.545 280.9 5.7 275 12
2008-07-17 07:30:16 51°11.071 2°42.533 280.8 5.7 275 12.1
2008-07-17 07:30:21 51°11.071 2°42.52 280.5 5.7 275 12
2008-07-17 07:30:26 51°11.072 2°42.507 280.4 5.8 274 12.1
2008-07-17 07:30:31 51°11.073 2°42.495 280.3 5.7 275 12
2008-07-17 07:30:36 51°11.073 2°42.482 280.1 5.8 274 12
2008-07-17 07:30:41 51°11.074 2°42.469 279.6 5.8 274 12
2008-07-17 07:30:46 51°11.074 2°42.456 279.2 5.8 274 12
2008-07-17 07:30:51 51°11.075 2°42.443 279 5.8 273 12
2008-07-17 07:30:56 51°11.075 2°42.431 278.6 5.8 274 11.9
2008-07-17 07:31:01 51°11.075 2°42.418 278.4 5.8 273 12
2008-07-17 07:31:06 51°11.076 2°42.405 278.2 5.8 273 12
2008-07-17 07:31:11 51°11.076 2°42.392 277.9 5.8 271 12
2008-07-17 07:31:16 51°11.076 2°42.379 277.3 5.8 272 12
2008-07-17 07:31:21 51°11.077 2°42.366 277.2 5.8 271 11.9
2008-07-17 07:31:26 51°11.077 2°42.353 276.7 5.8 272 11.9
2008-07-17 07:31:31 51°11.077 2°42.34 276.4 5.8 271 12
2008-07-17 07:31:36 51°11.077 2°42.327 276.1 5.8 271 12.1
2008-07-17 07:31:41 51°11.077 2°42.315 276.3 5.5 271 12
2008-07-17 07:31:46 51°11.078 2°42.304 276.5 5.3 271 11.9
2008-07-17 07:31:51 51°11.078 2°42.293 276.3 5 271 12
2008-07-17 07:31:56 51°11.078 2°42.282 276.1 4.9 270 12
2008-07-17 07:32:01 51°11.078 2°42.271 275.8 4.6 269 11.9
2008-07-17 07:32:05 51°11.077 2°42.263 275 4.5 268 11.9
2008-07-17 07:32:11 51°11.077 2°42.252 274.3 4.4 267 12
2008-07-17 07:32:16 51°11.077 2°42.242 273.5 4.2 264 11.9
2008-07-17 07:32:21 51°11.076 2°42.233 272.5 4.1 265 11.9
2008-07-17 07:32:25 51°11.076 2°42.227 271.5 4 264 11.9
2008-07-17 07:32:31 51°11.075 2°42.216 270.5 3.8 264 11.9
2008-07-17 07:32:36 51°11.074 2°42.208 269.4 3.7 260 11.8
2008-07-17 07:32:41 51°11.074 2°42.201 268 3.5 260 11.9
2008-07-17 07:32:46 51°11.073 2°42.194 266.4 3.2 258 11.8
2008-07-17 07:32:51 51°11.072 2°42.188 264.7 2.9 257 11.9
2008-07-17 07:32:56 51°11.071 2°42.182 262.5 2.7 255 12
2008-07-17 07:33:01 51°11.07 2°42.177 260.9 2.5 250 11.9
2008-07-17 07:33:05 51°11.069 2°42.173 259.9 2.3 251 11.9
2008-07-17 07:33:11 51°11.067 2°42.168 259.5 2.1 247 12
2008-07-17 07:33:16 51°11.067 2°42.164 259.2 1.8 248 11.9
2008-07-17 07:33:21 51°11.065 2°42.161 258.7 1.5 241 11.9
2008-07-17 07:33:26 51°11.064 2°42.158 257.9 1.4 235 12
2008-07-17 07:33:31 51°11.063 2°42.156 257.4 1.4 237 12.1
2008-07-17 07:33:36 51°11.062 2°42.153 256.5 1.3 234 11.9
2008-07-17 07:33:41 51°11.061 2°42.151 255.6 1.3 232 11.9
2008-07-17 07:33:46 51°11.06 2°42.149 254.5 1.3 231 11.9
2008-07-17 07:33:51 51°11.059 2°42.147 253.2 1.3 230 11.9
2008-07-17 07:33:56 51°11.058 2°42.145 251.8 1.3 234 11.9
2008-07-17 07:34:01 51°11.057 2°42.143 250.6 1.3 227 12
2008-07-17 07:34:06 51°11.056 2°42.141 249.2 1.2 231 11.9
2008-07-17 07:34:11 51°11.055 2°42.139 247.8 1.2 229 12
2008-07-17 07:34:16 51°11.053 2°42.137 246.5 1.2 226 12
2008-07-17 07:34:21 51°11.052 2°42.135 245 1.2 227 12
2008-07-17 07:34:26 51°11.051 2°42.133 243.4 1.2 225 12
2008-07-17 07:34:31 51°11.05 2°42.131 241.7 1.2 226 12
2008-07-17 07:34:36 51°11.049 2°42.129 240.2 1.2 223 11.9
2008-07-17 07:34:41 51°11.047 2°42.127 238.6 1.2 224 11.9
2008-07-17 07:34:46 51°11.046 2°42.125 237 1.2 223 11.9
2008-07-17 07:34:51 51°11.045 2°42.123 235.7 1.2 224 12
2008-07-17 07:34:56 51°11.044 2°42.122 234.1 1.2 224 12
2008-07-17 07:35:01 51°11.043 2°42.12 232.5 1.2 224 12.1
2008-07-17 07:35:05 51°11.042 2°42.119 231.4 1.2 218 11.9
2008-07-17 07:35:11 51°11.04 2°42.117 230.1 1.1 220 11.9
2008-07-17 07:35:15 51°11.039 2°42.115 228.7 1.2 219 12
2008-07-17 07:35:21 51°11.038 2°42.113 227.4 1.2 225 12
2008-07-17 07:35:26 51°11.036 2°42.112 226.5 1.2 213 12
2008-07-17 07:35:31 51°11.035 2°42.11 225.5 1.1 219 12
2008-07-17 07:35:36 51°11.034 2°42.109 224.3 1.1 216 12
2008-07-17 07:35:41 51°11.033 2°42.107 223.6 1.1 215 12
2008-07-17 07:35:46 51°11.032 2°42.106 222.9 1.1 219 12
2008-07-17 07:35:51 51°11.03 2°42.104 222 1.1 219 12
2008-07-17 07:35:56 51°11.029 2°42.103 221.3 1.1 216 12
2008-07-17 07:36:01 51°11.028 2°42.102 220.7 1.1 217 12.1
2008-07-17 07:36:06 51°11.026 2°42.1 220.3 1.1 215 12.1
2008-07-17 07:36:11 51°11.025 2°42.099 219.9 1.1 215 12.1
2008-07-17 07:36:16 51°11.024 2°42.097 219.6 1.1 218 12.1
2008-07-17 07:36:21 51°11.023 2°42.096 219.2 1.1 215 12
2008-07-17 07:36:26 51°11.022 2°42.095 218.9 1 216 12
2008-07-17 07:36:31 51°11.02 2°42.093 218.6 1.1 215 11.9
2008-07-17 07:36:36 51°11.019 2°42.092 218.3 1.1 215 11.9
2008-07-17 07:36:41 51°11.018 2°42.09 218.2 1.1 212 12
2008-07-17 07:36:46 51°11.017 2°42.089 217.8 1.1 220 12
2008-07-17 07:36:51 51°11.016 2°42.088 217.6 1.1 215 12
2008-07-17 07:36:56 51°11.014 2°42.086 217.6 1.1 213 12
2008-07-17 07:37:01 51°11.013 2°42.085 217.4 1.2 221 12
2008-07-17 07:37:05 51°11.012 2°42.084 217 1.3 213 12.1
2008-07-17 07:37:11 51°11.01 2°42.082 216.2 1.5 214 12.1
2008-07-17 07:37:16 51°11.008 2°42.08 214.6 1.7 214 12.1
2008-07-17 07:37:21 51°11.006 2°42.077 212.3 1.9 213 12.1
2008-07-17 07:37:25 51°11.004 2°42.075 209.2 2.1 214 12.1
2008-07-17 07:37:31 51°11.001 2°42.073 205.6 2.2 209 12
2008-07-17 07:37:36 51°10.998 2°42.07 202 2.4 207 12
2008-07-17 07:37:41 51°10.995 2°42.068 199 2.7 207 12.1
2008-07-17 07:37:46 51°10.991 2°42.065 197.5 3 206 12
2008-07-17 07:37:51 51°10.986 2°42.061 197.1 3.5 205 12.1
2008-07-17 07:37:56 51°10.982 2°42.057 197.8 4 206 12.1
2008-07-17 07:38:01 51°10.976 2°42.053 199.7 4.4 209 12.1
2008-07-17 07:38:06 51°10.971 2°42.048 201.7 4.7 208 12.1
2008-07-17 07:38:11 51°10.965 2°42.042 203.5 5 211 12.1
2008-07-17 07:38:16 51°10.959 2°42.036 206.3 5.3 213 12.1
2008-07-17 07:38:21 51°10.952 2°42.029 209.9 5.6 217 12
2008-07-17 07:38:26 51°10.946 2°42.021 213.6 5.7 219 12.1
2008-07-17 07:38:31 51°10.94 2°42.012 217 5.9 220 12.1
2008-07-17 07:38:36 51°10.934 2°42.003 218.9 6.1 222 12.1
2008-07-17 07:38:41 51°10.927 2°41.994 220.3 6.4 223 12.1
2008-07-17 07:38:46 51°10.92 2°41.983 220.9 7 223 12.2
2008-07-17 07:38:51 51°10.912 2°41.972 221 7.5 223 12.1
2008-07-17 07:38:56 51°10.905 2°41.96 220.5 7.9 223 12.1
2008-07-17 07:39:01 51°10.896 2°41.948 219.8 8.3 223 12.1
2008-07-17 07:39:06 51°10.888 2°41.935 220.7 8.5 223 12
2008-07-17 07:39:11 51°10.879 2°41.921 221.3 8.8 226 12.1
2008-07-17 07:39:16 51°10.87 2°41.907 222.1 9 224 12.1
2008-07-17 07:39:21 51°10.861 2°41.893 222.6 9.2 227 12.1
2008-07-17 07:39:26 51°10.852 2°41.878 223.4 9.3 225 12.1
2008-07-17 07:39:31 51°10.843 2°41.863 224 9.5 227 12.1
2008-07-17 07:39:36 51°10.834 2°41.847 224.2 9.5 227 12
2008-07-17 07:39:41 51°10.825 2°41.832 224.8 9.7 227 12.1
2008-07-17 07:39:46 51°10.816 2°41.816 224.9 9.7 227 12
2008-07-17 07:39:51 51°10.807 2°41.8 224.9 9.8 228 12
2008-07-17 07:39:56 51°10.797 2°41.785 225.3 9.8 226 12
2008-07-17 07:40:01 51°10.788 2°41.769 224.9 9.8 228 12
2008-07-17 07:40:06 51°10.779 2°41.753 225 9.9 227 12
2008-07-17 07:40:11 51°10.77 2°41.737 224.8 9.9 227 12
2008-07-17 07:40:16 51°10.76 2°41.721 225.1 9.9 227 12
2008-07-17 07:40:21 51°10.751 2°41.704 225.1 10 227 12
2008-07-17 07:40:26 51°10.742 2°41.688 224.9 10 227 12
2008-07-17 07:40:31 51°10.732 2°41.672 224.9 10 227 12
2008-07-17 07:40:36 51°10.723 2°41.656 225.2 10 228 11.9
2008-07-17 07:40:41 51°10.713 2°41.64 225.3 10 227 11.9
2008-07-17 07:40:46 51°10.704 2°41.623 225.3 10 228 11.8
2008-07-17 07:40:51 51°10.695 2°41.607 225.4 10 227 11.8
2008-07-17 07:40:56 51°10.685 2°41.59 225.5 10.1 229 11.8
2008-07-17 07:41:01 51°10.676 2°41.574 226.3 10 227 11.8
2008-07-17 07:41:06 51°10.667 2°41.558 225.6 10.1 228 11.7
2008-07-17 07:41:11 51°10.657 2°41.541 225.5 10 228 11.8
2008-07-17 07:41:16 51°10.648 2°41.525 225.7 10.1 228 11.7
2008-07-17 07:41:21 51°10.639 2°41.508 226.2 10.1 229 11.8
2008-07-17 07:41:25 51°10.631 2°41.495 226.7 10 229 11.7
2008-07-17 07:41:31 51°10.62 2°41.475 227.1 10.1 229 11.7
2008-07-17 07:41:36 51°10.611 2°41.458 226.6 10 228 11.7
2008-07-17 07:41:41 51°10.602 2°41.442 226.6 10 228 11.6
2008-07-17 07:41:46 51°10.593 2°41.425 226.4 10.1 228 11.6
2008-07-17 07:41:51 51°10.583 2°41.408 226.4 10.1 229 11.6
2008-07-17 07:41:56 51°10.574 2°41.392 226.3 10.1 229 11.6
2008-07-17 07:42:01 51°10.565 2°41.375 226.5 10.1 227 11.6
2008-07-17 07:42:06 51°10.555 2°41.359 225.8 10.1 228 11.5
2008-07-17 07:42:11 51°10.546 2°41.342 225.5 10 226 11.6
2008-07-17 07:42:16 51°10.537 2°41.326 225.4 10.1 228 11.6
2008-07-17 07:42:21 51°10.527 2°41.31 224.9 10.1 227 11.5
2008-07-17 07:42:26 51°10.518 2°41.293 225.1 10.1 228 11.5
2008-07-17 07:42:31 51°10.508 2°41.277 225.3 10.1 227 11.4
2008-07-17 07:42:36 51°10.499 2°41.26 225.8 10.1 228 11.5
2008-07-17 07:42:41 51°10.489 2°41.244 225.8 10.1 227 11.4
2008-07-17 07:42:46 51°10.48 2°41.227 225.8 10.1 229 11.4
2008-07-17 07:42:51 51°10.47 2°41.211 225.7 10.1 228 11.3
2008-07-17 07:42:56 51°10.461 2°41.194 225.6 10.1 229 11.3
2008-07-17 07:43:01 51°10.452 2°41.178 225.8 10.1 228 11.3
2008-07-17 07:43:06 51°10.442 2°41.162 226.1 10 228 11.3
2008-07-17 07:43:11 51°10.433 2°41.145 226.1 10 228 11.3
2008-07-17 07:43:16 51°10.424 2°41.129 226 10.1 229 11.3
2008-07-17 07:43:21 51°10.415 2°41.112 226.6 10 229 11.2
2008-07-17 07:43:26 51°10.406 2°41.094 227.6 10.1 231 11.2
2008-07-17 07:43:31 51°10.397 2°41.078 228.4 10.1 230 11.3
2008-07-17 07:43:36 51°10.388 2°41.06 229.1 10.1 232 11.1
2008-07-17 07:43:41 51°10.38 2°41.043 229.6 10.1 232 11.1
2008-07-17 07:43:46 51°10.371 2°41.025 230 10.1 232 11
2008-07-17 07:43:51 51°10.362 2°41.007 230.1 10.1 233 11.1
2008-07-17 07:43:56 51°10.354 2°40.99 230.3 10.1 232 11.1
2008-07-17 07:44:01 51°10.345 2°40.972 230.5 10 232 11.1
2008-07-17 07:44:05 51°10.338 2°40.959 230.5 10.1 231 11
2008-07-17 07:44:11 51°10.328 2°40.937 230 10.1 233 11
2008-07-17 07:44:16 51°10.32 2°40.92 231 10.1 233 10.9
2008-07-17 07:44:21 51°10.312 2°40.902 232 10.1 234 10.9
2008-07-17 07:44:26 51°10.303 2°40.884 232.2 10 234 10.9
2008-07-17 07:44:31 51°10.295 2°40.866 233.1 10.1 234 10.9
2008-07-17 07:44:36 51°10.287 2°40.848 233.2 10 235 10.9
2008-07-17 07:44:41 51°10.279 2°40.83 233.4 10 234 10.9
2008-07-17 07:44:46 51°10.271 2°40.812 233 10 236 10.9
2008-07-17 07:44:51 51°10.263 2°40.794 233.4 10.1 235 10.7
2008-07-17 07:44:56 51°10.256 2°40.774 235.1 10.1 239 10.8
2008-07-17 07:45:01 51°10.248 2°40.756 236.8 10 238 10.8
2008-07-17 07:45:06 51°10.241 2°40.737 237.7 10 240 10.8
2008-07-17 07:45:11 51°10.234 2°40.718 239.2 10 240 10.8
2008-07-17 07:45:16 51°10.228 2°40.698 240 10 241 10.7
2008-07-17 07:45:21 51°10.221 2°40.679 240.1 10 242 10.8
2008-07-17 07:45:26 51°10.214 2°40.659 241 10 242 10.7
2008-07-17 07:45:31 51°10.208 2°40.64 241.6 10 242 10.8
2008-07-17 07:45:36 51°10.201 2°40.62 242.1 10 242 10.7
2008-07-17 07:45:41 51°10.195 2°40.601 241.4 10 242 10.7
2008-07-17 07:45:46 51°10.188 2°40.581 241.6 10 241 10.6
2008-07-17 07:45:51 51°10.182 2°40.562 241.1 10 241 10.7
2008-07-17 07:45:56 51°10.175 2°40.543 240.8 10 241 10.7
2008-07-17 07:46:01 51°10.168 2°40.523 240.8 10 241 10.6
2008-07-17 07:46:06 51°10.161 2°40.504 240.8 10 241 10.8
2008-07-17 07:46:11 51°10.155 2°40.485 240.8 10 241 10.7
2008-07-17 07:46:16 51°10.148 2°40.465 240.4 9.8 241 10.7
2008-07-17 07:46:21 51°10.142 2°40.447 240.6 9.3 241 10.6
2008-07-17 07:46:26 51°10.136 2°40.43 240.7 9 241 10.5
2008-07-17 07:46:31 51°10.13 2°40.413 240.6 8.6 241 10.6
2008-07-17 07:46:36 51°10.125 2°40.397 241.1 8.2 242 10.6
2008-07-17 07:46:41 51°10.119 2°40.382 241.6 7.9 242 10.6
2008-07-17 07:46:46 51°10.115 2°40.366 242.4 7.7 244 10.6
2008-07-17 07:46:51 51°10.11 2°40.352 243.8 7.4 245 10.7
2008-07-17 07:46:56 51°10.106 2°40.337 245.2 7.2 245 10.6
2008-07-17 07:47:01 51°10.102 2°40.323 246.6 6.9 246 10.6
2008-07-17 07:47:06 51°10.098 2°40.309 247.4 6.8 246 10.7
2008-07-17 07:47:11 51°10.095 2°40.296 248.1 6.7 248 10.6
2008-07-17 07:47:16 51°10.091 2°40.282 248 6.6 247 10.6
2008-07-17 07:47:21 51°10.088 2°40.269 247.9 6.4 246 10.6
2008-07-17 07:47:26 51°10.084 2°40.256 247.7 6.4 247 10.7
2008-07-17 07:47:31 51°10.081 2°40.244 247.4 6.2 248 10.6
2008-07-17 07:47:36 51°10.078 2°40.231 248.7 6.1 249 10.7
2008-07-17 07:47:41 51°10.075 2°40.218 251 6 252 10.7
2008-07-17 07:47:46 51°10.073 2°40.206 254.5 5.9 257 10.7
2008-07-17 07:47:51 51°10.072 2°40.192 260.8 6.1 262 10.8
2008-07-17 07:47:56 51°10.072 2°40.179 266.6 6.2 271 10.7
2008-07-17 07:48:01 51°10.074 2°40.165 275.7 6.2 281 10.8
2008-07-17 07:48:05 51°10.076 2°40.155 285.7 6.1 289 10.7
2008-07-17 07:48:11 51°10.08 2°40.141 295.5 6 299 10.8
2008-07-17 07:48:16 51°10.085 2°40.13 305.4 5.8 308 10.8
2008-07-17 07:48:21 51°10.091 2°40.122 317.3 5.8 318 10.8
2008-07-17 07:48:26 51°10.098 2°40.114 325 5.7 326 10.9
2008-07-17 07:48:31 51°10.105 2°40.109 334.7 5.6 336 11
2008-07-17 07:48:36 51°10.112 2°40.106 344.4 5.5 347 11
2008-07-17 07:48:41 51°10.12 2°40.105 356 5.3 358 11.1
2008-07-17 07:48:45 51°10.126 2°40.106 3.8 5.3 7 11.2
2008-07-17 07:48:51 51°10.134 2°40.11 13.5 5.3 18 11.2
2008-07-17 07:48:56 51°10.14 2°40.116 23.6 5.2 29 11.2
2008-07-17 07:49:01 51°10.146 2°40.124 33.7 5.2 42 11.3
2008-07-17 07:49:06 51°10.15 2°40.133 43.5 5.2 51 11.3
2008-07-17 07:49:11 51°10.154 2°40.143 53.8 5.2 66 11.2
2008-07-17 07:49:16 51°10.155 2°40.154 63.8 5.4 76 11.3
2008-07-17 07:49:21 51°10.156 2°40.166 75.8 5.7 85 11.3
2008-07-17 07:49:26 51°10.156 2°40.18 82.6 6 90 11.4
2008-07-17 07:49:31 51°10.156 2°40.194 86.8 6.5 89 11.2
2008-07-17 07:49:36 51°10.156 2°40.21 87.2 7 90 11.2
2008-07-17 07:49:41 51°10.157 2°40.227 86.7 7.7 87 11.3
2008-07-17 07:49:46 51°10.157 2°40.245 86 8.1 90 11.2
2008-07-17 07:49:51 51°10.158 2°40.263 85.4 8.5 86 11.1
2008-07-17 07:49:56 51°10.158 2°40.283 84.7 8.9 87 11.1
2008-07-17 07:50:01 51°10.159 2°40.303 84.6 9.2 88 11
2008-07-17 07:50:06 51°10.159 2°40.324 85.1 9.3 89 11
2008-07-17 07:50:11 51°10.16 2°40.345 86 9.6 87 10.9
2008-07-17 07:50:16 51°10.16 2°40.366 85.7 9.6 89 10.9